createdAt,value
2018-03-23T00:03:31.776Z,19.00
2018-03-23T00:06:01.456Z,19.90
2018-03-23T00:08:29.994Z,19.37
2018-03-23T00:13:35.245Z,18.43
2018-03-23T00:16:03.841Z,19.20
2018-03-23T00:18:32.355Z,20.43
2018-03-23T00:21:02.110Z,19.73
2018-03-23T00:23:30.678Z,19.57
2018-03-23T00:26:00.022Z,19.93
2018-03-23T00:28:28.522Z,20.33
2018-03-23T00:30:58.270Z,20.63
2018-03-23T00:33:26.744Z,18.90
2018-03-23T00:35:55.211Z,19.37
2018-03-23T00:38:23.723Z,19.40
2018-03-23T00:40:53.564Z,19.27
2018-03-23T00:43:22.921Z,18.50
2018-03-23T00:45:51.408Z,18.93
2018-03-23T00:48:20.681Z,18.60
2018-03-23T00:50:49.807Z,17.73
2018-03-23T00:53:18.379Z,19.67
2018-03-23T00:55:48.571Z,19.50
2018-03-23T00:58:17.038Z,19.53
2018-03-23T01:00:48.518Z,20.10
2018-03-23T01:03:16.986Z,21.93
2018-03-23T01:05:45.509Z,20.33
2018-03-23T01:08:14.788Z,20.03
2018-03-23T01:10:43.277Z,19.63
2018-03-23T01:13:11.771Z,18.83
2018-03-23T01:15:41.487Z,18.07
2018-03-23T01:18:10.770Z,19.60
2018-03-23T01:20:39.253Z,18.17
2018-03-23T01:23:07.751Z,18.67
2018-03-23T01:25:36.209Z,17.90
2018-03-23T01:28:06.109Z,18.20
2018-03-23T01:30:39.599Z,17.43
2018-03-23T01:33:08.891Z,17.30
2018-03-23T01:35:38.016Z,18.00
2018-03-23T01:38:06.504Z,17.70
2018-03-23T01:40:35.007Z,18.37
2018-03-23T01:43:05.187Z,18.50
2018-03-23T01:45:33.705Z,18.10
2018-03-23T01:48:02.858Z,17.83
2018-03-23T01:50:35.002Z,18.90
2018-03-23T01:53:03.521Z,17.53
2018-03-23T01:55:32.076Z,17.07
2018-03-23T01:58:02.040Z,17.57
2018-03-23T02:00:30.210Z,19.57
2018-03-23T02:02:58.716Z,17.63
2018-03-23T02:05:27.221Z,18.30
2018-03-23T02:07:55.756Z,19.57
2018-03-23T02:10:24.267Z,17.23
2018-03-23T02:12:53.448Z,18.03
2018-03-23T02:15:23.371Z,17.13
2018-03-23T02:17:51.896Z,17.57
2018-03-23T02:20:22.368Z,17.33
2018-03-23T02:22:50.892Z,17.27
2018-03-23T02:25:20.566Z,16.87
2018-03-23T02:27:49.845Z,21.53
2018-03-23T02:30:18.267Z,19.47
2018-03-23T02:32:46.768Z,17.83
2018-03-23T02:35:15.225Z,17.97
2018-03-23T02:37:44.531Z,16.77
2018-03-23T02:40:17.351Z,18.00
2018-03-23T02:42:46.666Z,15.90
2018-03-23T02:45:15.214Z,17.47
2018-03-23T02:47:46.189Z,16.20
2018-03-23T02:50:15.684Z,17.77
2018-03-23T02:52:44.850Z,16.33
2018-03-23T02:55:14.749Z,15.27
2018-03-23T02:57:43.998Z,17.20
2018-03-23T03:00:12.138Z,15.17
2018-03-23T03:02:40.658Z,17.13
2018-03-23T03:05:15.891Z,18.10
2018-03-23T03:07:44.409Z,16.10
2018-03-23T03:10:12.941Z,17.20
2018-03-23T03:12:41.510Z,15.60
2018-03-23T03:15:09.984Z,15.17
2018-03-23T03:17:39.731Z,15.20
2018-03-23T03:20:10.029Z,16.70
2018-03-23T03:22:38.532Z,15.70
2018-03-23T03:25:07.024Z,17.80
2018-03-23T03:27:35.585Z,16.87
2018-03-23T03:30:04.620Z,15.30
2018-03-23T03:32:33.891Z,19.53
2018-03-23T03:35:02.103Z,16.63
2018-03-23T03:37:33.585Z,15.97
2018-03-23T03:40:02.913Z,18.73
2018-03-23T03:42:31.386Z,15.90
2018-03-23T03:44:59.966Z,15.27
2018-03-23T03:47:29.297Z,16.10
2018-03-23T03:49:58.546Z,17.77
2018-03-23T03:52:27.038Z,17.20
2018-03-23T03:54:56.312Z,16.93
2018-03-23T03:57:24.827Z,16.17
2018-03-23T03:59:53.318Z,17.10
2018-03-23T04:02:25.531Z,16.47
2018-03-23T04:04:55.494Z,16.43
2018-03-23T04:07:24.830Z,16.63
2018-03-23T04:09:53.346Z,17.07
2018-03-23T04:12:21.843Z,16.83
2018-03-23T04:14:51.059Z,16.13
2018-03-23T04:17:19.576Z,15.43
2018-03-23T04:19:49.490Z,16.37
2018-03-23T04:22:18.082Z,16.07
2018-03-23T04:24:50.276Z,16.67
2018-03-23T04:27:18.791Z,16.63
2018-03-23T04:29:47.185Z,16.73
2018-03-23T04:32:15.719Z,16.80
2018-03-23T04:34:44.984Z,16.97
2018-03-23T04:37:13.458Z,17.53
2018-03-23T04:39:42.046Z,16.47
2018-03-23T04:42:10.573Z,15.20
2018-03-23T04:44:42.016Z,16.53
2018-03-23T04:47:10.525Z,15.83
2018-03-23T04:49:38.810Z,16.10
2018-03-23T04:52:07.304Z,14.47
2018-03-23T04:54:35.799Z,16.13
2018-03-23T04:57:04.304Z,14.90
2018-03-23T04:59:33.530Z,14.13
2018-03-23T05:02:02.017Z,15.93
2018-03-23T05:04:30.490Z,15.07
2018-03-23T05:06:59.065Z,14.67
2018-03-23T05:09:27.616Z,16.00
2018-03-23T05:11:56.912Z,13.20
2018-03-23T05:14:25.224Z,14.63
2018-03-23T05:16:54.576Z,14.23
2018-03-23T05:19:25.742Z,14.10
2018-03-23T05:21:54.181Z,13.63
2018-03-23T05:24:22.692Z,14.03
2018-03-23T05:26:52.918Z,13.47
2018-03-23T05:29:23.641Z,13.10
2018-03-23T05:31:52.134Z,14.73
2018-03-23T05:34:20.655Z,12.70
2018-03-23T05:36:50.035Z,14.03
2018-03-23T05:39:18.504Z,12.60
2018-03-23T05:41:47.105Z,12.57
2018-03-23T05:44:16.467Z,13.03
2018-03-23T05:46:45.104Z,12.17
2018-03-23T05:49:14.374Z,13.00
2018-03-23T05:51:42.920Z,12.53
2018-03-23T05:54:11.429Z,13.07
2018-03-23T05:56:46.879Z,13.17
2018-03-23T05:59:15.399Z,13.33
2018-03-23T06:01:43.927Z,12.27
2018-03-23T07:01:54.622Z,10.43
2018-03-23T07:04:23.140Z,12.60
2018-03-23T07:06:52.413Z,11.63
2018-03-23T07:09:20.948Z,12.33
2018-03-23T07:11:49.468Z,10.80
2018-03-23T07:14:17.990Z,11.33
2018-03-23T07:19:20.265Z,11.70
2018-03-23T07:21:52.241Z,12.47
2018-03-23T07:24:20.759Z,11.73
2018-03-23T07:26:50.172Z,12.33
2018-03-23T07:29:19.459Z,14.00
2018-03-23T07:31:48.120Z,12.43
2018-03-23T07:34:16.679Z,12.57
2018-03-23T07:36:46.400Z,12.30
2018-03-23T07:39:16.067Z,14.37
2018-03-23T07:41:44.380Z,12.33
2018-03-23T07:44:12.785Z,12.30
2018-03-23T07:46:41.192Z,14.27
2018-03-23T07:49:09.591Z,11.57
2018-03-23T07:51:37.974Z,11.70
2018-03-23T07:54:06.372Z,13.10
2018-03-23T07:56:34.759Z,12.27
2018-03-23T07:59:03.182Z,12.50
2018-03-23T08:01:31.421Z,12.93
2018-03-23T08:03:59.823Z,12.77
2018-03-23T08:06:28.215Z,12.03
2018-03-23T08:08:56.684Z,12.90
2018-03-23T08:11:25.393Z,12.80
2018-03-23T08:13:54.127Z,13.07
2018-03-23T08:16:22.658Z,12.37
2018-03-23T08:18:51.075Z,13.80
2018-03-23T08:21:20.253Z,17.20
2018-03-23T08:23:49.409Z,13.07
2018-03-23T08:26:17.855Z,13.20
2018-03-23T08:28:46.254Z,15.00
2018-03-23T08:31:14.665Z,13.93
2018-03-23T08:33:43.069Z,15.67
2018-03-23T08:36:12.255Z,15.60
2018-03-23T08:38:41.451Z,16.10
2018-03-23T08:41:10.640Z,15.73
2018-03-23T08:43:39.056Z,16.73
2018-03-23T08:46:07.443Z,16.77
2018-03-23T08:48:35.841Z,17.50
2018-03-23T08:51:03.941Z,16.67
2018-03-23T08:53:32.380Z,16.07
2018-03-23T08:56:01.729Z,16.03
2018-03-23T08:58:30.901Z,14.30
2018-03-23T09:00:59.324Z,14.73
2018-03-23T09:03:28.488Z,15.23
2018-03-23T09:05:56.898Z,15.70
2018-03-23T09:08:26.054Z,24.60
2018-03-23T09:10:55.202Z,15.70
2018-03-23T09:13:23.605Z,17.10
2018-03-23T09:15:52.053Z,18.17
2018-03-23T09:18:20.446Z,18.30
2018-03-23T09:20:48.854Z,16.03
2018-03-23T09:23:17.270Z,15.33
2018-03-23T09:25:46.474Z,15.23
2018-03-23T09:28:16.381Z,13.20
2018-03-23T09:30:45.365Z,13.60
2018-03-23T09:33:14.541Z,11.87
2018-03-23T09:35:42.785Z,11.87
2018-03-23T09:38:10.861Z,12.43
2018-03-23T09:40:39.245Z,11.97
2018-03-23T09:43:07.684Z,11.40
2018-03-23T09:45:36.074Z,11.60
2018-03-23T09:48:04.479Z,11.47
2018-03-23T09:50:32.891Z,11.63
2018-03-23T09:53:01.303Z,10.73
2018-03-23T09:55:29.712Z,15.10
2018-03-23T09:57:58.128Z,11.27
2018-03-23T10:00:26.566Z,12.17
2018-03-23T10:02:55.511Z,13.50
2018-03-23T10:05:26.035Z,13.83
2018-03-23T10:07:55.543Z,13.40
2018-03-23T10:10:25.296Z,14.03
2018-03-23T10:12:53.721Z,13.90
2018-03-23T10:15:23.576Z,13.40
2018-03-23T10:17:53.594Z,14.50
2018-03-23T10:20:21.985Z,21.27
2018-03-23T10:22:50.414Z,21.97
2018-03-23T10:25:19.622Z,30.67
2018-03-23T10:27:48.033Z,29.87
2018-03-23T10:30:16.445Z,28.93
2018-03-23T10:32:45.273Z,28.43
2018-03-23T10:35:13.693Z,27.10
2018-03-23T10:37:42.089Z,24.07
2018-03-23T10:40:10.509Z,21.33
2018-03-23T10:42:38.913Z,18.73
2018-03-23T10:45:07.323Z,18.17
2018-03-23T10:47:35.745Z,18.13
2018-03-23T10:50:03.828Z,15.63
2018-03-23T10:52:32.273Z,15.57
2018-03-23T10:55:00.702Z,15.53
2018-03-23T10:57:29.111Z,14.57
2018-03-23T10:59:57.514Z,13.80
2018-03-23T11:05:26.020Z,13.65
2018-03-23T11:07:55.140Z,13.00
2018-03-23T11:10:24.041Z,12.80
2018-03-23T11:12:52.806Z,13.07
2018-03-23T11:15:21.284Z,13.40
2018-03-23T11:17:49.752Z,12.03
2018-03-23T11:20:18.296Z,13.43
2018-03-23T11:22:46.700Z,12.13
2018-03-23T11:25:15.120Z,12.30
2018-03-23T11:27:43.531Z,13.07
2018-03-23T11:30:12.447Z,11.50
2018-03-23T11:32:40.981Z,11.27
2018-03-23T11:35:09.377Z,11.30
2018-03-23T11:37:38.554Z,11.17
2018-03-23T11:40:06.945Z,11.63
2018-03-23T11:42:35.348Z,10.83
2018-03-23T11:45:03.756Z,11.00
2018-03-23T11:47:32.151Z,10.57
2018-03-23T11:50:00.546Z,10.40
2018-03-23T11:52:28.942Z,10.30
2018-03-23T11:54:58.125Z,11.20
2018-03-23T11:57:26.524Z,11.93
2018-03-23T11:59:55.696Z,10.73
2018-03-23T12:02:24.102Z,11.27
2018-03-23T12:04:53.440Z,10.93
2018-03-23T12:07:21.665Z,10.87
2018-03-23T12:09:50.912Z,11.73
2018-03-23T12:12:19.324Z,12.80
2018-03-23T12:14:47.710Z,11.90
2018-03-23T12:17:16.878Z,9.67
2018-03-23T12:19:45.357Z,11.53
2018-03-23T12:22:13.766Z,10.23
2018-03-23T12:24:42.935Z,12.63
2018-03-23T12:27:11.337Z,11.03
2018-03-23T12:29:40.513Z,12.00
2018-03-23T12:32:08.932Z,11.10
2018-03-23T12:34:37.326Z,11.07
2018-03-23T12:37:05.751Z,11.93
2018-03-23T12:39:33.943Z,12.03
2018-03-23T12:42:03.099Z,11.40
2018-03-23T12:44:31.490Z,13.90
2018-03-23T12:46:59.881Z,12.40
2018-03-23T12:49:28.288Z,11.30
2018-03-23T12:51:56.690Z,12.23
2018-03-23T12:54:26.066Z,10.83
2018-03-23T12:56:55.280Z,10.93
2018-03-23T12:59:24.197Z,13.20
2018-03-23T13:01:52.659Z,11.83
2018-03-23T13:04:21.093Z,12.30
2018-03-23T13:06:50.246Z,14.50
2018-03-23T13:09:18.722Z,14.07
2018-03-23T13:11:47.127Z,15.10
2018-03-23T13:14:15.529Z,14.33
2018-03-23T13:16:44.722Z,11.57
2018-03-23T13:19:13.877Z,11.33
2018-03-23T13:21:42.280Z,14.07
2018-03-23T13:24:10.708Z,12.23
2018-03-23T13:26:39.130Z,13.03
2018-03-23T13:29:07.529Z,15.00
2018-03-23T13:31:36.717Z,13.77
2018-03-23T13:34:05.949Z,12.57
2018-03-23T13:36:34.343Z,13.40
2018-03-23T13:39:02.767Z,14.47
2018-03-23T13:41:31.950Z,13.00
2018-03-23T13:44:00.392Z,14.77
2018-03-23T13:46:28.823Z,15.33
2018-03-23T13:48:57.982Z,14.20
2018-03-23T13:51:26.409Z,12.77
2018-03-23T13:53:55.625Z,13.93
2018-03-23T13:56:24.881Z,11.67
2018-03-23T13:58:58.870Z,15.00
2018-03-23T14:01:32.756Z,13.83
2018-03-23T14:04:01.007Z,12.80
2018-03-23T14:06:29.477Z,12.90
2018-03-23T14:08:57.886Z,12.40
2018-03-23T14:11:26.293Z,12.20
2018-03-23T14:13:55.518Z,11.57
2018-03-23T14:16:25.390Z,12.93
2018-03-23T14:18:54.289Z,12.90
2018-03-23T14:21:22.936Z,12.17
2018-03-23T14:23:51.348Z,10.70
2018-03-23T14:26:19.798Z,12.13
2018-03-23T14:28:48.282Z,11.67
2018-03-23T14:31:16.809Z,11.17
2018-03-23T14:33:46.005Z,10.67
2018-03-23T14:36:15.174Z,10.60
2018-03-23T14:38:44.310Z,11.70
2018-03-23T14:41:12.716Z,10.77
2018-03-23T14:43:41.112Z,11.20
2018-03-23T14:46:09.521Z,9.33
2018-03-23T14:48:38.670Z,9.87
2018-03-23T14:51:07.080Z,9.27
2018-03-23T14:53:36.240Z,9.63
2018-03-23T14:56:04.634Z,9.90
2018-03-23T14:58:38.547Z,9.50
2018-03-23T15:01:06.947Z,9.73
2018-03-23T15:03:36.133Z,10.10
2018-03-23T15:06:04.979Z,10.57
2018-03-23T15:08:33.372Z,10.73
2018-03-23T15:11:01.772Z,10.17
2018-03-23T15:13:30.173Z,10.57
2018-03-23T15:15:58.585Z,10.07
2018-03-23T15:18:26.980Z,10.27
2018-03-23T15:20:56.389Z,9.53
2018-03-23T15:23:25.300Z,11.07
2018-03-23T15:25:54.481Z,10.73
2018-03-23T15:28:24.231Z,11.70
2018-03-23T15:30:52.983Z,11.17
2018-03-23T15:33:22.136Z,10.80
2018-03-23T15:35:50.528Z,9.83
2018-03-23T15:38:18.928Z,11.50
2018-03-23T15:40:48.098Z,11.60
2018-03-23T15:43:16.525Z,10.43
2018-03-23T15:45:44.963Z,11.33
2018-03-23T15:48:13.351Z,10.90
2018-03-23T15:50:41.785Z,12.27
2018-03-23T15:53:10.357Z,11.60
2018-03-23T15:55:38.772Z,11.23
2018-03-23T15:58:07.177Z,11.13
2018-03-23T16:00:36.345Z,11.67
2018-03-23T16:03:04.242Z,10.87
2018-03-23T16:05:33.413Z,11.73
2018-03-23T16:08:01.632Z,11.23
2018-03-23T16:10:30.044Z,11.97
2018-03-23T16:12:58.436Z,11.40
2018-03-23T16:15:26.837Z,11.70
2018-03-23T16:17:56.017Z,10.90
2018-03-23T16:20:24.439Z,11.13
2018-03-23T16:22:52.913Z,11.60
2018-03-23T16:25:21.326Z,11.93
2018-03-23T16:27:49.576Z,10.67
2018-03-23T16:30:17.974Z,11.47
2018-03-23T16:32:46.370Z,11.30
2018-03-23T16:35:14.794Z,11.03
2018-03-23T16:37:43.197Z,10.70
2018-03-23T16:40:11.615Z,10.50
2018-03-23T16:42:40.050Z,11.03
2018-03-23T16:45:08.450Z,10.47
2018-03-23T16:47:36.853Z,11.37
2018-03-23T16:50:05.070Z,10.83
2018-03-23T16:52:33.305Z,10.87
2018-03-23T16:55:01.709Z,11.47
2018-03-23T16:57:29.917Z,11.47
2018-03-23T16:59:58.330Z,10.97
2018-03-23T17:02:26.725Z,11.30
2018-03-23T17:04:55.897Z,11.17
2018-03-23T17:07:24.884Z,10.67
2018-03-23T17:09:53.311Z,11.30
2018-03-23T17:12:21.723Z,11.30
2018-03-23T17:14:50.124Z,11.03
2018-03-23T17:17:18.319Z,11.23
2018-03-23T17:19:47.492Z,10.90
2018-03-23T17:22:15.908Z,10.63
2018-03-23T17:24:44.314Z,10.57
2018-03-23T17:27:12.707Z,10.93
2018-03-23T17:29:41.096Z,11.03
2018-03-23T17:32:09.513Z,11.13
2018-03-23T17:34:38.890Z,11.10
2018-03-23T17:37:08.084Z,10.63
2018-03-23T17:39:37.247Z,12.57
2018-03-23T17:42:05.650Z,17.23
2018-03-23T17:44:34.079Z,11.63
2018-03-23T17:47:02.492Z,11.70
2018-03-23T17:49:30.894Z,11.30
2018-03-23T17:52:00.075Z,10.37
2018-03-23T17:54:28.494Z,11.20
2018-03-23T17:56:57.863Z,9.83
2018-03-23T17:59:26.293Z,9.67
2018-03-23T18:01:55.348Z,10.20
2018-03-23T18:04:24.505Z,9.70
2018-03-23T18:06:52.991Z,10.17
2018-03-23T18:09:21.389Z,9.70
2018-03-23T18:11:50.604Z,9.47
2018-03-23T18:14:19.198Z,10.43
2018-03-23T18:16:47.598Z,9.60
2018-03-23T18:19:15.988Z,10.27
2018-03-23T18:21:44.423Z,9.77
2018-03-23T18:24:12.824Z,11.40
2018-03-23T18:26:41.230Z,12.47
2018-03-23T18:29:09.641Z,10.97
2018-03-23T18:31:38.810Z,11.17
2018-03-23T18:34:07.226Z,11.50
2018-03-23T18:36:36.390Z,11.10
2018-03-23T18:39:04.136Z,12.33
2018-03-23T18:41:32.535Z,10.53
2018-03-23T18:44:00.961Z,11.13
2018-03-23T18:46:29.394Z,10.63
2018-03-23T18:48:57.817Z,11.03
2018-03-23T18:51:26.218Z,10.57
2018-03-23T18:53:56.016Z,10.87
2018-03-23T18:56:24.755Z,14.33
2018-03-23T18:58:54.419Z,12.63
2018-03-23T19:01:23.017Z,12.90
2018-03-23T19:03:51.479Z,12.10
2018-03-23T19:06:20.024Z,11.20
2018-03-23T19:08:48.418Z,10.60
2018-03-23T19:11:16.860Z,10.60
2018-03-23T19:13:46.015Z,11.50
2018-03-23T19:16:14.409Z,11.20
2018-03-23T19:18:42.826Z,11.93
2018-03-23T19:21:12.047Z,12.30
2018-03-23T19:23:40.454Z,11.23
2018-03-23T19:26:08.859Z,12.27
2018-03-23T19:28:38.046Z,12.70
2018-03-23T19:31:06.447Z,12.30
2018-03-23T19:33:41.198Z,12.83
2018-03-23T19:36:09.615Z,12.40
2018-03-23T19:38:38.020Z,13.60
2018-03-23T19:41:06.430Z,12.67
2018-03-23T19:43:34.833Z,12.63
2018-03-23T19:46:03.246Z,12.67
2018-03-23T19:48:31.637Z,12.80
2018-03-23T19:51:00.056Z,12.60
2018-03-23T19:53:29.232Z,13.93
2018-03-23T19:55:57.624Z,13.77
2018-03-23T19:58:26.812Z,11.90
2018-03-23T20:00:55.235Z,11.67
2018-03-23T20:03:24.686Z,11.83
2018-03-23T20:05:52.556Z,12.27
2018-03-23T20:08:20.965Z,13.13
2018-03-23T20:10:49.371Z,14.27
2018-03-23T20:13:17.580Z,16.73
2018-03-23T20:15:45.989Z,48.23
2018-03-23T20:18:19.939Z,21.00
2018-03-23T20:20:53.778Z,17.93
2018-03-23T20:23:23.055Z,16.47
2018-03-23T20:25:51.471Z,15.17
2018-03-23T20:28:26.084Z,15.63
2018-03-23T20:30:56.078Z,15.13
2018-03-23T20:33:24.663Z,14.37
2018-03-23T20:35:53.110Z,14.00
2018-03-23T20:41:19.352Z,15.73
2018-03-23T20:43:47.759Z,17.73
2018-03-23T20:46:16.179Z,19.60
2018-03-23T20:48:44.580Z,20.27
2018-03-23T20:51:12.995Z,16.50
2018-03-23T20:53:41.409Z,16.43
2018-03-23T20:56:09.823Z,16.70
2018-03-23T20:58:38.234Z,16.33
2018-03-23T21:01:06.300Z,15.77
2018-03-23T21:03:34.725Z,14.97
2018-03-23T21:06:03.552Z,16.47
2018-03-23T21:08:31.940Z,16.07
2018-03-23T21:11:00.361Z,16.63
2018-03-23T21:13:29.534Z,14.90
2018-03-23T21:15:57.941Z,16.00
2018-03-23T21:18:27.126Z,15.83
2018-03-23T21:20:55.566Z,16.37
2018-03-23T21:23:23.956Z,15.70
2018-03-23T21:25:52.355Z,15.67
2018-03-23T21:28:20.752Z,15.70
2018-03-23T21:30:49.931Z,16.87
2018-03-23T21:33:18.320Z,16.90
2018-03-23T21:35:47.486Z,17.27
2018-03-23T21:38:15.918Z,16.53
2018-03-23T21:40:44.338Z,16.80
2018-03-23T21:43:12.773Z,16.70
2018-03-23T21:45:41.167Z,16.53
2018-03-23T21:48:09.592Z,16.03
2018-03-23T21:50:37.996Z,18.50
2018-03-23T21:53:07.179Z,16.80
2018-03-23T21:55:36.358Z,17.87
2018-03-23T21:58:04.774Z,16.53
2018-03-23T22:00:33.170Z,17.10
2018-03-23T22:03:01.577Z,17.27
2018-03-23T22:05:29.992Z,17.80
2018-03-23T22:07:59.162Z,16.47
2018-03-23T22:10:27.566Z,19.23
2018-03-23T22:12:56.732Z,18.13
2018-03-23T22:15:25.149Z,17.90
2018-03-23T22:17:53.567Z,18.23
2018-03-23T22:20:21.974Z,18.53
2018-03-23T22:22:50.392Z,17.60
2018-03-23T22:25:18.791Z,18.73
2018-03-23T22:27:47.185Z,19.13
2018-03-23T22:30:15.591Z,17.60
2018-03-23T22:32:43.990Z,18.63
2018-03-23T22:35:13.173Z,19.50
2018-03-23T22:37:41.589Z,18.93
2018-03-23T22:40:09.984Z,18.30
2018-03-23T22:42:39.161Z,19.90
2018-03-23T22:45:07.573Z,18.50
2018-03-23T22:47:35.970Z,20.30
2018-03-23T22:50:03.935Z,18.27
2018-03-23T22:52:32.353Z,18.70
2018-03-23T22:55:00.772Z,19.73
2018-03-23T22:57:29.177Z,18.97
2018-03-23T22:59:57.578Z,19.97
2018-03-23T23:02:25.992Z,17.07
2018-03-23T23:04:55.145Z,19.07
2018-03-23T23:07:24.308Z,19.07
2018-03-23T23:09:52.838Z,18.53
2018-03-23T23:12:21.256Z,16.87
2018-03-23T23:14:49.673Z,15.87
2018-03-23T23:17:18.100Z,16.97
2018-03-23T23:19:47.115Z,11.33
2018-03-23T23:22:15.310Z,19.40
2018-03-23T23:24:43.720Z,17.80
2018-03-23T23:27:12.140Z,16.80
2018-03-23T23:29:40.537Z,19.53
2018-03-23T23:32:08.919Z,17.37
2018-03-23T23:34:37.404Z,13.47
2018-03-23T23:37:05.925Z,10.97
2018-03-23T23:39:35.100Z,16.83
2018-03-23T23:42:03.500Z,18.13
2018-03-23T23:44:32.660Z,17.77
2018-03-23T23:47:01.058Z,20.17
2018-03-23T23:49:29.453Z,12.13
2018-03-23T23:51:58.639Z,11.83
2018-03-23T23:54:27.822Z,8.30
2018-03-23T23:56:56.248Z,11.23
2018-03-23T23:59:25.470Z,6.70
